CheckWX is a tool to help pilots better visualize weather data.  It is not intended as a substitute for an official pre-flight weather briefing.

00:07:34 UTC

18A METAR
Franklin County Airport
Canon, Georgia, USA
Current

33 mins ago

K18A 242335Z AUTO 23007KT 10SM CLR 28/09 A2991 RMK AO2 T02800091
Observed
Apr-24 @ 23:35 UTC
Wind
  • 230° at 7 KTS
Visibility
10 SM
Flight Rules
VFR
Cloud Levels
  • Clear skies
Temperature
28°C / 82°F
Dewpoint
C / 48°F
Humidity
30%
Altimeter
29.91" Hg
Pressure
1012.92 hPa
Previous

53 mins ago

K18A 242315Z AUTO 23008KT 10SM CLR 29/09 A2991 RMK AO2 T02940092
Observed
Apr-24 @ 23:15 UTC
Wind
  • 230° at 8 KTS
Visibility
10 SM
Flight Rules
VFR
Cloud Levels
  • Clear skies
Temperature
29°C / 84°F
Dewpoint
C / 48°F
Humidity
29%
Altimeter
29.91" Hg
Pressure
1012.92 hPa
Previous

1 hour ago

K18A 242255Z AUTO 24008G14KT 10SM CLR 30/08 A2991 RMK AO2 T03000081
Observed
Apr-24 @ 22:55 UTC
Wind
  • 240° at 8 KTS
  • Gusting to 14 KTS
Visibility
10 SM
Flight Rules
VFR
Cloud Levels
  • Clear skies
Temperature
30°C / 86°F
Dewpoint
C / 46°F
Humidity
25%
Altimeter
29.91" Hg
Pressure
1012.92 hPa